createdAt,value
2018-08-23T00:01:35.839Z,47.97
2018-08-23T00:04:05.027Z,45.40
2018-08-23T00:06:33.997Z,45.70
2018-08-23T00:09:03.117Z,46.30
2018-08-23T00:11:34.345Z,47.10
2018-08-23T00:14:02.731Z,46.60
2018-08-23T00:16:46.653Z,44.70
2018-08-23T00:19:15.935Z,45.13
2018-08-23T00:21:46.399Z,44.80
2018-08-23T00:24:17.192Z,46.60
2018-08-23T00:26:50.779Z,46.00
2018-08-23T00:29:25.286Z,43.70
2018-08-23T00:32:00.150Z,44.57
2018-08-23T00:34:32.112Z,45.57
2018-08-23T00:37:02.038Z,46.70
2018-08-23T00:39:30.794Z,42.50
2018-08-23T00:42:05.003Z,43.37
2018-08-23T00:44:53.579Z,41.50
2018-08-23T00:47:27.531Z,37.10
2018-08-23T00:49:56.020Z,39.17
2018-08-23T00:52:42.169Z,39.17
2018-08-23T00:55:28.811Z,39.17
2018-08-23T00:57:57.242Z,34.90
2018-08-23T01:00:27.627Z,35.80
2018-08-23T01:03:00.791Z,35.47
2018-08-23T01:05:36.221Z,32.37
2018-08-23T01:08:05.968Z,34.00
2018-08-23T01:10:35.611Z,34.10
2018-08-23T01:13:04.352Z,32.40
2018-08-23T01:15:33.112Z,34.23
2018-08-23T01:18:14.263Z,32.10
2018-08-23T01:20:44.395Z,33.03
2018-08-23T01:23:12.859Z,32.20
2018-08-23T01:25:42.528Z,31.90
2018-08-23T01:28:11.048Z,33.90
2018-08-23T01:30:40.166Z,31.10
2018-08-23T01:33:12.141Z,34.07
2018-08-23T01:35:42.577Z,32.03
2018-08-23T01:38:11.786Z,33.20
2018-08-23T01:40:40.802Z,32.67
2018-08-23T01:43:09.278Z,33.50
2018-08-23T01:45:37.870Z,32.73
2018-08-23T01:48:07.984Z,33.10
2018-08-23T01:50:36.528Z,31.63
2018-08-23T01:53:05.047Z,30.23
2018-08-23T01:55:33.735Z,32.13
2018-08-23T01:58:01.940Z,31.50
2018-08-23T02:00:32.564Z,33.07
2018-08-23T02:03:01.925Z,32.50
2018-08-23T02:05:30.839Z,32.83
2018-08-23T02:07:59.297Z,32.70
2018-08-23T02:10:27.816Z,32.27
2018-08-23T02:12:57.560Z,34.87
2018-08-23T02:15:29.594Z,33.60
2018-08-23T02:17:58.802Z,34.50
2018-08-23T02:20:27.934Z,30.40
2018-08-23T02:22:56.480Z,32.73
2018-08-23T02:25:25.013Z,33.40
2018-08-23T02:28:03.864Z,32.57
2018-08-23T02:30:47.563Z,34.00
2018-08-23T02:33:16.479Z,33.17
2018-08-23T02:36:03.957Z,35.60
2018-08-23T02:38:32.668Z,33.47
2018-08-23T02:41:01.553Z,36.90
2018-08-23T02:43:30.189Z,37.70
2018-08-23T02:46:01.645Z,34.90
2018-08-23T02:48:30.324Z,38.63
2018-08-23T02:50:58.847Z,37.77
2018-08-23T02:53:36.968Z,38.43
2018-08-23T02:56:07.381Z,38.13
2018-08-23T02:58:59.876Z,40.27
2018-08-23T03:01:31.793Z,40.63
2018-08-23T03:04:10.370Z,47.50
2018-08-23T03:06:54.851Z,43.87
2018-08-23T03:09:56.721Z,45.40
2018-08-23T03:12:25.107Z,46.00
2018-08-23T03:14:53.636Z,51.63
2018-08-23T03:17:27.187Z,47.50
2018-08-23T03:20:09.079Z,50.10
2018-08-23T03:22:37.975Z,48.17
2018-08-23T03:25:08.875Z,48.73
2018-08-23T03:27:37.896Z,57.67
2018-08-23T03:30:08.751Z,55.43
2018-08-23T03:32:37.219Z,58.57
2018-08-23T03:35:05.824Z,60.40
2018-08-23T03:37:34.562Z,63.97
2018-08-23T03:40:03.643Z,55.47
2018-08-23T03:42:32.482Z,59.33
2018-08-23T03:45:02.291Z,55.83
2018-08-23T03:47:38.791Z,60.80
2018-08-23T03:50:08.896Z,62.50
2018-08-23T03:52:39.587Z,57.47
2018-08-23T03:55:09.976Z,55.20
2018-08-23T03:57:44.367Z,53.43
2018-08-23T04:00:13.031Z,57.43
2018-08-23T04:02:41.635Z,52.97
2018-08-23T04:05:15.820Z,56.67
2018-08-23T04:07:44.332Z,52.90
2018-08-23T04:10:12.786Z,56.87
2018-08-23T04:12:43.576Z,52.93
2018-08-23T04:15:22.736Z,48.07
2018-08-23T04:17:52.342Z,51.37
2018-08-23T04:20:21.189Z,53.73
2018-08-23T04:22:50.042Z,49.67
2018-08-23T04:25:18.474Z,50.50
2018-08-23T04:27:47.166Z,50.97
2018-08-23T04:30:15.948Z,49.67
2018-08-23T04:32:47.107Z,47.37
2018-08-23T04:35:21.900Z,50.10
2018-08-23T04:37:51.164Z,52.40
2018-08-23T04:40:19.911Z,49.40
2018-08-23T04:42:48.503Z,50.10
2018-08-23T04:45:22.445Z,49.37
2018-08-23T04:48:08.242Z,47.47
2018-08-23T04:50:39.042Z,50.63
2018-08-23T04:53:08.528Z,46.53
2018-08-23T04:55:37.219Z,47.37
2018-08-23T04:58:05.852Z,45.13
2018-08-23T05:00:34.625Z,41.70
2018-08-23T05:03:03.568Z,43.73
2018-08-23T05:05:38.597Z,42.40
2018-08-23T05:08:07.651Z,43.93
2018-08-23T05:10:36.205Z,43.53
2018-08-23T05:13:05.042Z,41.90
2018-08-23T05:15:34.079Z,39.17
2018-08-23T05:18:02.699Z,39.10
2018-08-23T05:20:31.419Z,40.20
2018-08-23T05:23:04.701Z,36.47
2018-08-23T05:25:33.325Z,37.90
2018-08-23T05:28:14.432Z,37.40
2018-08-23T05:30:44.497Z,39.00
2018-08-23T05:33:15.095Z,40.58
2018-08-23T05:35:44.933Z,36.20
2018-08-23T05:38:15.487Z,38.07
2018-08-23T05:40:45.529Z,37.70
2018-08-23T05:43:16.157Z,36.93
2018-08-23T05:45:46.730Z,34.67
2018-08-23T05:48:23.064Z,36.53
2018-08-23T05:50:52.027Z,35.40
2018-08-23T05:53:20.891Z,33.90
2018-08-23T05:55:54.631Z,34.87
2018-08-23T05:58:26.015Z,35.43
2018-08-23T06:00:54.583Z,34.80
2018-08-23T06:03:23.235Z,34.70
2018-08-23T06:05:52.940Z,33.37
2018-08-23T06:08:21.575Z,32.37
2018-08-23T06:10:54.815Z,32.03
2018-08-23T06:13:23.837Z,31.87
2018-08-23T06:15:56.614Z,32.20
2018-08-23T06:18:26.512Z,31.93
2018-08-23T06:20:56.241Z,31.50
2018-08-23T06:23:56.062Z,30.80
2018-08-23T06:26:49.343Z,30.80
2018-08-23T06:29:27.278Z,29.50
2018-08-23T06:32:10.235Z,31.97
2018-08-23T06:34:50.615Z,30.97
2018-08-23T06:37:21.740Z,31.07
2018-08-23T06:39:50.444Z,31.07
2018-08-23T06:42:19.762Z,31.03
2018-08-23T06:44:52.044Z,31.00
2018-08-23T06:47:25.021Z,30.30
2018-08-23T06:49:55.518Z,29.60
2018-08-23T06:52:36.037Z,29.43
2018-08-23T06:55:07.583Z,32.00
2018-08-23T06:57:48.218Z,31.93
2018-08-23T07:00:22.414Z,31.40
2018-08-23T07:02:51.244Z,30.57
2018-08-23T07:05:20.743Z,32.00
2018-08-23T07:07:50.244Z,32.90
2018-08-23T07:10:19.222Z,32.57
2018-08-23T07:12:49.046Z,31.67
2018-08-23T07:15:19.278Z,32.83
2018-08-23T07:17:48.170Z,33.30
2018-08-23T07:20:17.730Z,33.47
2018-08-23T07:22:46.530Z,33.77
2018-08-23T07:25:16.659Z,32.13
2018-08-23T07:27:45.219Z,32.13
2018-08-23T07:30:17.306Z,32.77
2018-08-23T07:32:47.933Z,33.20
2018-08-23T07:35:18.867Z,32.63
2018-08-23T07:37:48.679Z,34.00
2018-08-23T07:40:19.212Z,34.10
2018-08-23T07:42:48.923Z,33.70
2018-08-23T07:45:17.415Z,33.80
2018-08-23T07:47:48.043Z,35.70
2018-08-23T07:50:16.641Z,32.83
2018-08-23T07:52:46.594Z,33.40
2018-08-23T07:55:15.039Z,33.27
2018-08-23T07:57:44.281Z,33.43
2018-08-23T08:00:39.337Z,33.40
2018-08-23T08:03:08.684Z,32.80
2018-08-23T08:05:40.244Z,32.77
2018-08-23T08:08:09.644Z,31.30
2018-08-23T08:10:42.340Z,32.63
2018-08-23T08:13:10.942Z,29.40
2018-08-23T08:15:39.558Z,30.40
2018-08-23T08:18:15.039Z,32.17
2018-08-23T08:20:48.649Z,31.10
2018-08-23T08:23:18.083Z,29.83
2018-08-23T08:25:47.447Z,30.30
2018-08-23T08:28:18.471Z,28.27
2018-08-23T08:30:47.972Z,29.40
2018-08-23T08:33:21.526Z,28.70
2018-08-23T08:35:52.777Z,30.57
2018-08-23T08:38:22.316Z,28.30
2018-08-23T08:40:53.502Z,26.90
2018-08-23T08:43:23.174Z,29.33
2018-08-23T08:45:55.442Z,27.63
2018-08-23T08:48:31.915Z,26.87
2018-08-23T08:51:21.898Z,26.77
2018-08-23T08:53:51.100Z,27.27
2018-08-23T08:56:24.949Z,29.10
2018-08-23T08:58:53.802Z,28.83
2018-08-23T09:01:24.580Z,29.63
2018-08-23T09:03:53.300Z,29.80
2018-08-23T09:06:44.569Z,29.00
2018-08-23T09:09:46.133Z,29.30
2018-08-23T09:12:15.609Z,28.87
2018-08-23T09:14:44.509Z,29.93
2018-08-23T09:17:35.851Z,28.93
2018-08-23T09:20:09.715Z,29.27
2018-08-23T09:22:40.709Z,28.20
2018-08-23T09:25:16.361Z,29.20
2018-08-23T09:27:47.325Z,28.33
2018-08-23T09:30:24.047Z,25.87
2018-08-23T09:32:52.775Z,25.27
2018-08-23T09:35:27.320Z,23.80
2018-08-23T09:37:57.583Z,24.63
2018-08-23T09:40:26.977Z,22.10
2018-08-23T09:42:57.689Z,21.23
2018-08-23T09:45:28.323Z,21.23
2018-08-23T09:47:57.112Z,23.47
2018-08-23T09:50:26.834Z,20.67
2018-08-23T09:52:55.783Z,21.73
2018-08-23T09:55:29.430Z,21.27
2018-08-23T09:57:58.161Z,20.87
2018-08-23T10:00:32.360Z,21.10
2018-08-23T10:03:06.640Z,19.83
2018-08-23T10:05:47.567Z,21.83
2018-08-23T10:08:22.571Z,20.57
2018-08-23T10:10:56.871Z,20.20
2018-08-23T10:13:31.642Z,19.90
2018-08-23T10:16:05.839Z,22.10
2018-08-23T10:18:40.255Z,20.50
2018-08-23T10:21:08.863Z,21.60
2018-08-23T10:23:37.518Z,21.43
2018-08-23T10:26:22.916Z,22.60
2018-08-23T10:28:51.485Z,22.87
2018-08-23T10:31:20.370Z,21.80
2018-08-23T10:33:49.090Z,22.47
2018-08-23T10:36:17.744Z,19.50
2018-08-23T10:38:46.296Z,20.93
2018-08-23T10:41:14.735Z,22.40
2018-08-23T10:43:47.234Z,21.17
2018-08-23T10:46:15.791Z,21.33
2018-08-23T10:48:44.431Z,21.97
2018-08-23T10:51:13.240Z,21.90
2018-08-23T10:53:42.034Z,21.70
2018-08-23T10:56:10.496Z,22.40
2018-08-23T10:58:39.048Z,24.97
2018-08-23T11:01:07.746Z,25.00
2018-08-23T11:03:36.766Z,22.97
2018-08-23T11:06:05.833Z,20.70
2018-08-23T11:08:36.208Z,25.47
2018-08-23T11:11:10.454Z,23.27
2018-08-23T11:13:46.458Z,19.43
2018-08-23T11:16:21.193Z,19.97
2018-08-23T11:18:56.514Z,22.03
2018-08-23T11:21:25.354Z,21.73
2018-08-23T11:23:54.699Z,21.80
2018-08-23T11:26:24.480Z,21.53
2018-08-23T11:28:53.198Z,21.37
2018-08-23T11:31:27.764Z,20.50
2018-08-23T11:33:56.439Z,16.50
2018-08-23T11:36:24.538Z,17.03
2018-08-23T11:38:53.227Z,18.50
2018-08-23T11:41:22.692Z,16.27
2018-08-23T11:46:24.570Z,17.87
2018-08-23T11:48:53.428Z,15.10
2018-08-23T11:51:23.104Z,15.03
2018-08-23T11:53:53.809Z,15.70
2018-08-23T11:56:24.110Z,14.80
2018-08-23T11:58:52.990Z,15.80
2018-08-23T12:01:21.508Z,15.23
2018-08-23T12:03:50.319Z,14.53
2018-08-23T12:06:20.522Z,14.33
2018-08-23T12:08:52.871Z,13.43
2018-08-23T12:11:21.371Z,12.57
2018-08-23T12:13:51.281Z,11.93
2018-08-23T12:16:22.545Z,11.30
2018-08-23T12:18:51.843Z,11.17
2018-08-23T12:21:20.475Z,9.93
2018-08-23T12:23:49.657Z,12.27
2018-08-23T12:26:20.154Z,11.17
2018-08-23T12:28:54.474Z,10.50
2018-08-23T12:31:24.612Z,9.33
2018-08-23T12:33:54.862Z,9.23
2018-08-23T12:36:29.109Z,8.80
2018-08-23T12:39:03.263Z,9.80
2018-08-23T12:41:38.103Z,10.60
2018-08-23T12:44:07.541Z,8.70
2018-08-23T12:46:38.213Z,10.10
2018-08-23T12:49:06.961Z,8.93
2018-08-23T12:51:37.015Z,10.77
2018-08-23T12:54:06.531Z,9.30
2018-08-23T12:56:35.853Z,9.17
2018-08-23T12:59:14.398Z,9.07
2018-08-23T13:01:43.813Z,7.67
2018-08-23T13:04:12.415Z,7.73
2018-08-23T13:06:41.356Z,9.13
2018-08-23T13:09:10.087Z,8.80
2018-08-23T13:11:41.644Z,9.03
2018-08-23T13:14:10.135Z,7.20
2018-08-23T13:16:39.195Z,7.33
2018-08-23T13:19:07.734Z,7.13
2018-08-23T13:21:37.132Z,7.70
2018-08-23T13:24:05.766Z,7.17
2018-08-23T13:26:51.219Z,8.50
2018-08-23T13:31:52.829Z,8.40
2018-08-23T13:34:21.335Z,7.63
2018-08-23T13:36:50.000Z,7.53
2018-08-23T13:39:18.547Z,8.00
2018-08-23T13:41:49.111Z,7.73
2018-08-23T13:44:18.647Z,8.40
2018-08-23T13:46:47.289Z,7.03
2018-08-23T13:49:15.886Z,6.60
2018-08-23T13:51:44.656Z,4.53
2018-08-23T13:54:13.347Z,6.20
2018-08-23T13:56:43.188Z,7.20
2018-08-23T13:59:12.039Z,5.80
2018-08-23T14:01:40.906Z,5.90
2018-08-23T14:04:10.163Z,5.90
2018-08-23T14:06:39.897Z,4.57
2018-08-23T14:09:08.635Z,4.93
2018-08-23T14:11:37.208Z,4.80
2018-08-23T14:14:06.545Z,4.00
2018-08-23T14:16:35.087Z,3.53
2018-08-23T14:19:04.328Z,3.20
2018-08-23T14:21:32.860Z,3.07
2018-08-23T14:24:02.084Z,2.63
2018-08-23T14:26:30.618Z,2.17
2018-08-23T14:28:59.259Z,2.20
2018-08-23T14:31:30.123Z,2.10
2018-08-23T14:33:59.301Z,1.90
2018-08-23T14:36:28.131Z,1.80
2018-08-23T14:38:57.245Z,2.20
2018-08-23T14:41:27.352Z,1.77
2018-08-23T14:43:55.720Z,2.33
2018-08-23T14:46:31.929Z,2.47
2018-08-23T14:49:01.043Z,2.80
2018-08-23T14:51:29.911Z,2.33
2018-08-23T14:53:58.861Z,2.80
2018-08-23T14:56:34.685Z,2.30
2018-08-23T14:59:03.405Z,2.43
2018-08-23T15:01:31.969Z,2.70
2018-08-23T15:04:01.932Z,3.23
2018-08-23T15:06:31.575Z,2.60
2018-08-23T15:09:00.301Z,2.43
2018-08-23T15:11:32.810Z,2.57
2018-08-23T15:14:01.748Z,3.53
2018-08-23T15:16:30.440Z,3.10
2018-08-23T15:18:58.837Z,2.37
2018-08-23T15:21:27.828Z,3.43
2018-08-23T15:23:56.594Z,3.00
2018-08-23T15:26:26.620Z,2.60
2018-08-23T15:28:55.155Z,2.50
2018-08-23T15:31:24.384Z,2.40
2018-08-23T15:33:53.434Z,2.40
2018-08-23T15:36:22.048Z,2.60
2018-08-23T15:38:50.739Z,2.33
2018-08-23T15:41:19.718Z,2.60
2018-08-23T15:43:49.380Z,2.60
2018-08-23T15:46:18.384Z,2.00
2018-08-23T15:48:47.380Z,3.37
2018-08-23T15:51:17.016Z,2.67
2018-08-23T15:53:47.770Z,2.53
2018-08-23T15:56:16.583Z,3.33
2018-08-23T15:58:46.120Z,3.20
2018-08-23T16:01:16.912Z,2.87
2018-08-23T16:03:46.638Z,2.50
2018-08-23T16:06:16.193Z,2.63
2018-08-23T16:08:51.805Z,2.73
2018-08-23T16:11:24.257Z,2.30
2018-08-23T16:13:54.147Z,2.90
2018-08-23T16:16:28.730Z,2.30
2018-08-23T16:19:03.531Z,2.10
2018-08-23T16:21:39.173Z,2.90
2018-08-23T16:24:08.585Z,2.80
2018-08-23T16:26:43.132Z,2.60
2018-08-23T16:29:11.639Z,3.07
2018-08-23T16:31:41.520Z,3.27
2018-08-23T16:34:09.996Z,2.70
2018-08-23T16:36:38.767Z,2.97
2018-08-23T16:39:10.100Z,2.43
2018-08-23T16:41:38.916Z,2.80
2018-08-23T16:44:07.651Z,2.50
2018-08-23T16:46:36.856Z,3.37
2018-08-23T16:49:05.797Z,3.10
2018-08-23T16:51:34.640Z,3.00
2018-08-23T16:54:03.448Z,2.50
2018-08-23T16:56:33.030Z,2.70
2018-08-23T16:59:01.902Z,3.77
2018-08-23T17:01:30.327Z,3.50
2018-08-23T17:03:59.494Z,3.50
2018-08-23T17:06:29.252Z,3.23
2018-08-23T17:08:57.956Z,2.83
2018-08-23T17:11:26.535Z,2.60
2018-08-23T17:13:56.227Z,2.70
2018-08-23T17:21:42.039Z,2.77
2018-08-23T17:26:39.833Z,4.67
2018-08-23T17:29:08.284Z,4.40
2018-08-23T17:31:37.067Z,4.97
2018-08-23T17:36:38.427Z,5.27
2018-08-23T17:39:08.074Z,5.20
2018-08-23T17:41:38.542Z,5.10
2018-08-23T17:44:07.521Z,6.20
2018-08-23T17:46:36.353Z,5.10
2018-08-23T17:49:07.440Z,5.30
2018-08-23T17:51:36.131Z,5.30
2018-08-23T17:54:05.096Z,5.37
2018-08-23T17:56:33.635Z,4.67
2018-08-23T17:59:02.791Z,5.80
2018-08-23T18:01:32.677Z,4.47
2018-08-23T18:04:01.884Z,5.57
2018-08-23T18:06:31.099Z,5.30
2018-08-23T18:09:00.662Z,5.40
2018-08-23T18:11:29.306Z,5.03
2018-08-23T18:13:58.665Z,5.80
2018-08-23T18:16:32.868Z,5.80
2018-08-23T18:19:01.338Z,5.80
2018-08-23T18:21:29.991Z,4.80
2018-08-23T18:23:58.398Z,5.23
2018-08-23T18:26:28.286Z,5.50
2018-08-23T18:28:58.124Z,4.97
2018-08-23T18:31:26.682Z,3.97
2018-08-23T18:33:55.695Z,5.03
2018-08-23T18:36:24.573Z,4.00
2018-08-23T18:41:26.369Z,4.80
2018-08-23T18:43:56.479Z,3.50
2018-08-23T18:46:25.654Z,4.70
2018-08-23T18:48:57.303Z,4.03
2018-08-23T18:54:00.059Z,4.00
2018-08-23T18:56:30.262Z,4.10
2018-08-23T18:58:58.991Z,3.40
2018-08-23T19:01:28.759Z,3.40
2018-08-23T19:03:57.542Z,4.17
2018-08-23T19:06:32.652Z,3.70
2018-08-23T19:09:01.688Z,3.97
2018-08-23T19:11:30.595Z,3.80
2018-08-23T19:13:59.435Z,4.00
2018-08-23T19:16:34.033Z,3.57
2018-08-23T19:19:03.613Z,3.30
2018-08-23T19:21:33.033Z,3.97
2018-08-23T19:24:03.096Z,4.67
2018-08-23T19:26:32.819Z,4.40
2018-08-23T19:29:01.655Z,3.10
2018-08-23T19:31:31.072Z,3.03
2018-08-23T19:34:00.601Z,2.43
2018-08-23T19:36:29.487Z,2.50
2018-08-23T19:38:58.906Z,3.13
2018-08-23T19:41:28.919Z,3.23
2018-08-23T19:43:57.929Z,3.80
2018-08-23T19:46:33.025Z,4.60
2018-08-23T19:49:07.374Z,5.13
2018-08-23T19:51:35.930Z,5.40
2018-08-23T19:54:05.296Z,5.20
2018-08-23T19:56:34.073Z,7.73
2018-08-23T19:59:02.815Z,7.43
2018-08-23T20:01:32.871Z,9.17
2018-08-23T20:04:01.523Z,9.90
2018-08-23T20:06:30.465Z,11.70
2018-08-23T20:08:59.328Z,10.77
2018-08-23T20:11:27.962Z,15.78
2018-08-23T20:13:56.715Z,13.00
2018-08-23T20:16:25.579Z,10.60
2018-08-23T20:18:54.408Z,11.07
2018-08-23T20:21:23.539Z,10.43
2018-08-23T20:23:52.361Z,10.70
2018-08-23T20:26:21.037Z,11.70
2018-08-23T20:28:49.837Z,13.80
2018-08-23T20:31:19.353Z,16.90
2018-08-23T20:33:48.123Z,16.10
2018-08-23T20:36:16.896Z,16.10
2018-08-23T20:38:45.556Z,15.60
2018-08-23T20:41:14.147Z,15.90
2018-08-23T20:43:42.763Z,16.40
2018-08-23T20:46:11.358Z,17.13
2018-08-23T20:48:41.067Z,15.80
2018-08-23T20:51:09.947Z,18.17
2018-08-23T20:53:38.581Z,17.73
2018-08-23T20:56:07.260Z,21.00
2018-08-23T20:58:36.165Z,19.47
2018-08-23T21:01:04.846Z,19.80
2018-08-23T21:03:33.533Z,19.23
2018-08-23T21:06:02.274Z,20.03
2018-08-23T21:08:30.856Z,20.37
2018-08-23T21:10:59.699Z,20.40
2018-08-23T21:13:28.025Z,22.60
2018-08-23T21:15:56.766Z,22.90
2018-08-23T21:18:25.771Z,22.10
2018-08-23T21:20:54.772Z,25.23
2018-08-23T21:23:23.504Z,26.53
2018-08-23T21:25:52.120Z,28.90
2018-08-23T21:28:20.947Z,24.63
2018-08-23T21:30:49.629Z,25.93
2018-08-23T21:33:18.493Z,26.80
2018-08-23T21:35:47.364Z,25.87
2018-08-23T21:38:16.205Z,27.57
2018-08-23T21:40:44.792Z,24.70
2018-08-23T21:43:13.673Z,30.00
2018-08-23T21:45:42.306Z,26.13
2018-08-23T21:48:11.063Z,24.43
2018-08-23T21:50:39.897Z,26.00
2018-08-23T21:53:08.557Z,24.70
2018-08-23T21:55:38.158Z,26.63
2018-08-23T21:58:08.522Z,24.40
2018-08-23T22:00:43.068Z,23.77
2018-08-23T22:03:12.636Z,20.30
2018-08-23T22:05:41.702Z,23.90
2018-08-23T22:08:10.672Z,23.77
2018-08-23T22:10:39.357Z,21.63
2018-08-23T22:13:07.781Z,23.23
2018-08-23T22:15:42.144Z,21.00
2018-08-23T22:18:10.661Z,23.27
2018-08-23T22:20:39.535Z,23.37
2018-08-23T22:23:08.205Z,23.50
2018-08-23T22:25:37.709Z,26.47
2018-08-23T22:28:06.923Z,26.70
2018-08-23T22:30:35.883Z,26.97
2018-08-23T22:33:04.753Z,29.07
2018-08-23T22:35:33.524Z,24.60
2018-08-23T22:38:02.350Z,25.57
2018-08-23T22:40:31.162Z,22.90
2018-08-23T22:42:59.487Z,23.57
2018-08-23T22:45:28.099Z,23.13
2018-08-23T22:47:56.886Z,25.27
2018-08-23T22:50:25.542Z,26.97
2018-08-23T22:52:54.461Z,22.40
2018-08-23T22:55:23.104Z,25.33
2018-08-23T22:57:51.848Z,25.30
2018-08-23T23:00:26.331Z,22.97
2018-08-23T23:02:55.120Z,26.70
2018-08-23T23:05:24.167Z,24.37
2018-08-23T23:07:52.678Z,24.63
2018-08-23T23:10:21.330Z,25.90
2018-08-23T23:12:50.285Z,24.37
2018-08-23T23:15:25.030Z,23.77
2018-08-23T23:17:53.852Z,23.83
2018-08-23T23:20:22.466Z,23.17
2018-08-23T23:22:51.022Z,23.90
2018-08-23T23:25:19.801Z,23.70
2018-08-23T23:27:48.547Z,25.83
2018-08-23T23:30:17.520Z,21.40
2018-08-23T23:32:46.236Z,22.40
2018-08-23T23:35:14.834Z,22.57
2018-08-23T23:37:43.474Z,24.40
2018-08-23T23:40:12.308Z,22.03
2018-08-23T23:42:41.098Z,21.80
2018-08-23T23:45:09.760Z,21.23
2018-08-23T23:47:38.137Z,23.97
2018-08-23T23:50:07.125Z,20.73
2018-08-23T23:52:35.777Z,22.30
2018-08-23T23:55:04.376Z,23.80
2018-08-23T23:57:33.384Z,23.10
